Tenerife Sur - Aeropuerto en Canarias

latitud = 28° 2' 49''N | longitud = 016° 33' 40''W
64 metros sobre el nivel del mar |

Fecha, hora, temperatura, viento dirección y velocidad, humedad y presión.

  • 16-08-2018 01:00:00 | 22.20°C | Nordeste |32.00 km/h | 83.00% | 1011.20 hPa
  • 16-08-2018 00:00:00 | 22.60°C | Nordeste |26.00 km/h | 79.00% | 1011.60 hPa
  • 15-08-2018 23:00:00 | 22.70°C | Nordeste |27.00 km/h | 78.00% | 1011.30 hPa
  • 15-08-2018 22:00:00 | 22.70°C | Nordeste |29.00 km/h | 78.00% | 1010.80 hPa
  • 15-08-2018 21:00:00 | 23.50°C | Nordeste |35.00 km/h | 74.00% | 1010.10 hPa
  • 15-08-2018 20:00:00 | 24.80°C | Este |33.00 km/h | 69.00% | 1009.80 hPa
  • 15-08-2018 19:00:00 | 26.30°C | Este |36.00 km/h | 65.00% | 1009.50 hPa
  • 15-08-2018 18:00:00 | 26.70°C | Este |39.00 km/h | 64.00% | 1009.20 hPa
  • 15-08-2018 17:00:00 | 26.90°C | Este |46.00 km/h | 64.00% | 1008.80 hPa
  • 15-08-2018 16:00:00 | 26.90°C | Este |48.00 km/h | 64.00% | 1009.10 hPa
  • 15-08-2018 15:00:00 | 27.10°C | Este |40.00 km/h | 63.00% | 1010.00 hPa
  • 15-08-2018 14:00:00 | 0.00°C | Este |43.00 km/h | 0.00% | 1010.00 hPa
  • 15-08-2018 13:00:00 | 27.80°C | Este |29.00 km/h | 61.00% | 1009.90 hPa
  • 15-08-2018 12:00:00 | 28.00°C | Nordeste |30.00 km/h | 60.00% | 1010.30 hPa
  • 15-08-2018 11:00:00 | 26.20°C | Este |26.00 km/h | 67.00% | 1011.00 hPa
  • 15-08-2018 10:00:00 | 25.40°C | Este |19.00 km/h | 69.00% | 1010.20 hPa
  • 15-08-2018 09:00:00 | 23.70°C | Nordeste |20.00 km/h | 76.00% | 1010.40 hPa
  • 15-08-2018 08:00:00 | 22.40°C | Nordeste |28.00 km/h | 81.00% | 1009.70 hPa
  • 15-08-2018 07:00:00 | 22.30°C | Nordeste |18.00 km/h | 82.00% | 1009.10 hPa
  • 15-08-2018 06:00:00 | 22.90°C | Este |4.00 km/h | 75.00% | 1008.80 hPa
  • 15-08-2018 05:00:00 | 22.80°C | Nordeste |29.00 km/h | 77.00% | 1008.20 hPa
  • 15-08-2018 04:00:00 | 22.70°C | Nordeste |19.00 km/h | 82.00% | 1008.80 hPa
  • 15-08-2018 03:00:00 | 23.10°C | Nordeste |15.00 km/h | 78.00% | 1008.40 hPa
  • 15-08-2018 02:00:00 | 23.40°C | Nordeste |22.00 km/h | 76.00% | 1008.90 hPa